TAF LDZA 230525Z 2306/2406 VRB02KT CAVOK
                 TX13/2313Z TN02/2404Z
          PROB30 2322/2406 0300 FG=
TAF COR LDZA 230144Z 2300/2400 VRB02KT 9999 FEW010 BKN020
                     TX13/2313Z TN05/2323Z
               TEMPO 2300/2305 3000 -RA BR OVC007
               TEMPO 2302/2311 05009KT=
TAF LDZA 222325Z 2300/2400 VRB02KT 9999 BKN020
                 TX13/2313Z TN05/2323Z
           TEMPO 2300/2305 3000 -RA BR OVC009
           TEMPO 2302/2311 05009KT
           BECMG 2305/2307 SCT040=
TAF LDZA 221725Z 2218/2318 VRB02KT 9000 OVC008
                 TX14/2218Z TN09/2317Z
           TEMPO 2218/2302 SCT010
          PROB30 2218/2301 1000 BCFG OVC002
           BECMG 2302/2305 05008KT BKN045
           BECMG 2309/2311 09005KT=
TAF LDZA 221125Z 2212/2312 06005KT 9999 BKN009 OVC040
                 TX14/2214Z TN08/2306Z
           TEMPO 2212/2301 SCT012 BKN035
    PROB40 TEMPO 2212/2309 4500 -RA
    PROB30 TEMPO 2217/2301 1400 -RA BR OVC003
           BECMG 2301/2303 04009KT BKN045
           BECMG 2305/2307 08007KT=
TAF AMD LDZA 220816Z 2208/2306 05004KT 8000 BKN005 OVC040
                     TX15/2213Z TN10/2304Z
        PROB40 TEMPO 2208/2306 4000 RA
               TEMPO 2210/2301 SCT010 BKN035
        PROB30 TEMPO 2216/2301 1200 -RA BR OVC002
               BECMG 2301/2303 03009KT BKN040=
TAF LDZA 220525Z 2206/2306 VRB02KT 9999 BKN040
                 TX15/2213Z TN10/2304Z
    PROB40 TEMPO 2206/2306 4000 -RA BKN010
           BECMG 2219/2221 03008KT=
TAF LDZA 212325Z 2200/2300 VRB02KT 9999 BKN040
                 TX15/2213Z TN11/2204Z
    PROB40 TEMPO 2202/2220 RA BKN010
          PROB30 2220/2300 4000 -RA BR BKN008
           BECMG 2222/2300 03008KT=